Time;durP1;ratioP1;P1;durP2;ratioP2;P2;SDS_P1;SDS_P2;PMS_P1;PMS_P2;Temp;Humidity;BMP_temperature;BMP_pressure;BME280_temperature;BME280_humidity;BME280_pressure;Samples;Min_cycle;Max_cycle;Signal;HPM_P1;HPM_P2
2022/07/02 00:00:39;;;;;;;12.60;5.18;;;;;;;24.19;59.42;100717.94;4917155;29;20044;-77
2022/07/02 00:03:24;;;;;;;;;;;;;;;24.20;59.71;100722.31;4917949;29;20044;-76
2022/07/02 00:06:12;;;;;;;10.88;3.67;;;;;;;24.33;59.14;100722.59;4932112;29;19914;-76
2022/07/02 00:08:59;;;;;;;12.13;3.13;;;;;;;24.47;58.99;100727.28;4917278;29;20055;-76
2022/07/02 00:11:47;;;;;;;13.23;3.13;;;;;;;24.33;57.87;100722.59;4925593;29;20036;-77
2022/07/02 00:14:33;;;;;;;14.80;3.22;;;;;;;24.50;58.06;100721.66;4916201;29;20048;-77
2022/07/02 00:17:19;;;;;;;14.48;4.38;;;;;;;24.66;57.57;100729.50;4911763;29;20512;-77
2022/07/02 00:20:04;;;;;;;7.45;3.10;;;;;;;24.76;57.45;100738.94;4922346;29;20056;-77
2022/07/02 00:22:52;;;;;;;11.55;2.90;;;;;;;24.64;58.10;100737.44;4925187;29;20051;-75
2022/07/02 00:25:47;;;;;;;7.75;2.83;;;;;;;24.69;58.04;100735.00;4917079;29;20048;-75
2022/07/02 00:28:36;;;;;;;7.20;3.45;;;;;;;24.79;57.18;100738.13;4935035;28;20413;-75
2022/07/02 00:31:21;;;;;;;12.73;3.25;;;;;;;24.78;56.30;100731.78;4917468;29;20532;-76
2022/07/02 00:34:06;;;;;;;6.57;2.20;;;;;;;24.55;55.04;100740.69;4920589;29;20056;-75
2022/07/02 00:36:51;;;;;;;6.40;2.40;;;;;;;24.44;54.81;100734.44;4922653;29;20431;-76
2022/07/02 00:39:37;;;;;;;8.80;2.30;;;;;;;24.09;55.72;100741.00;4911069;29;20051;-75
2022/07/02 00:42:24;;;;;;;7.53;2.53;;;;;;;24.19;55.08;100744.94;4942486;28;20059;-76
2022/07/02 00:45:09;;;;;;;6.18;2.17;;;;;;;24.09;54.25;100745.75;4920361;29;20059;-77
2022/07/02 00:47:54;;;;;;;11.27;2.42;;;;;;;24.29;55.37;100746.84;4926096;29;20063;-76
2022/07/02 00:50:43;;;;;;;6.55;2.65;;;;;;;24.52;54.65;100749.88;4916484;29;20044;-77
2022/07/02 00:53:27;;;;;;;8.75;2.13;;;;;;;24.42;52.85;100755.50;4909796;29;20694;-77
2022/07/02 00:56:12;;;;;;;;;;;;;;;24.37;52.48;100750.38;4928584;29;20421;-75
2022/07/02 00:58:56;;;;;;;9.83;1.90;;;;;;;24.44;52.94;100750.31;4911017;29;19923;-78
2022/07/02 01:01:40;;;;;;;;;;;;;;;24.56;52.18;100758.19;4916599;29;20107;-75
2022/07/02 01:04:29;;;;;;;4.70;1.65;;;;;;;24.65;53.05;100759.28;4916331;29;19919;-77
2022/07/02 01:07:16;;;;;;;8.10;2.33;;;;;;;24.77;52.12;100763.56;4915954;29;20059;-77
2022/07/02 01:10:16;;;;;;;14.13;2.35;;;;;;;24.85;51.11;100767.06;4919917;29;20047;-77
2022/07/02 01:13:01;;;;;;;3.70;1.73;;;;;;;24.81;50.58;100764.31;4919570;29;20039;-76
2022/07/02 01:15:46;;;;;;;4.00;1.75;;;;;;;24.91;50.93;100771.81;4919507;29;20067;-76
2022/07/02 01:18:31;;;;;;;7.45;1.98;;;;;;;24.96;49.91;100781.69;4904505;29;20525;-77
2022/07/02 01:21:16;;;;;;;5.93;1.90;;;;;;;24.84;49.35;100773.84;4922484;29;20528;-78
2022/07/02 01:24:02;;;;;;;8.90;2.17;;;;;;;24.93;49.96;100782.53;4915508;29;20055;-77
2022/07/02 01:26:47;;;;;;;4.93;2.22;;;;;;;24.66;49.77;100779.56;4915829;29;20524;-78
2022/07/02 01:29:32;;;;;;;3.22;1.23;;;;;;;24.68;49.94;100780.72;4917390;29;20063;-77
2022/07/02 01:32:18;;;;;;;6.55;2.22;;;;;;;24.68;50.02;100777.94;4916664;29;20067;-78
2022/07/02 01:35:06;;;;;;;2.50;1.75;;;;;;;24.53;50.65;100784.03;4932461;29;20050;-77
2022/07/02 01:37:51;;;;;;;9.10;1.80;;;;;;;24.61;49.65;100789.13;4920802;29;20068;-76
2022/07/02 01:40:37;;;;;;;2.08;1.58;;;;;;;24.71;48.55;100787.47;4916762;29;20051;-76
2022/07/02 01:43:21;;;;;;;;;;;;;;;24.84;49.25;100787.75;4923501;29;20059;-75
2022/07/02 01:46:07;;;;;;;7.50;1.90;;;;;;;24.71;49.97;100790.25;4926847;29;19919;-75
2022/07/02 01:48:51;;;;;;;8.70;2.92;;;;;;;24.29;50.25;100794.09;4923094;29;20042;-76
2022/07/02 01:51:36;;;;;;;2.72;1.58;;;;;;;24.09;50.46;100793.00;4922802;29;20039;-78
2022/07/02 01:54:21;;;;;;;5.10;1.48;;;;;;;23.87;51.04;100787.53;4933488;29;20050;-76
2022/07/02 01:57:06;;;;;;;5.13;1.92;;;;;;;23.94;50.45;100792.28;4922513;29;20047;-76
2022/07/02 01:59:51;;;;;;;6.25;1.70;;;;;;;24.06;50.81;100799.38;4910410;29;20055;-75
2022/07/02 02:02:35;;;;;;;;;;;;;;;23.95;50.99;100798.63;4916002;29;20043;-76
2022/07/02 02:05:19;;;;;;;15.00;2.72;;;;;;;23.80;52.05;100801.47;4923407;29;20380;-77
2022/07/02 02:08:05;;;;;;;11.50;2.42;;;;;;;23.71;52.22;100803.09;4941553;29;20126;-77
2022/07/02 02:10:50;;;;;;;7.35;2.47;;;;;;;23.67;52.12;100803.09;4907545;29;20041;-76
2022/07/02 02:13:35;;;;;;;;;;;;;;;23.70;53.28;100805.09;4914147;29;20070;-76
2022/07/02 02:16:20;;;;;;;;;;;;;;;23.72;53.53;100807.47;4926043;29;19915;-76
2022/07/02 02:19:06;;;;;;;5.20;1.77;;;;;;;23.72;52.86;100794.34;4928004;29;19915;-77
2022/07/02 02:21:51;;;;;;;7.35;1.75;;;;;;;23.68;52.53;100798.34;4915800;29;20055;-76
2022/07/02 02:24:36;;;;;;;5.57;2.05;;;;;;;23.76;52.70;100799.91;4921756;29;20067;-78
2022/07/02 02:27:21;;;;;;;9.85;2.10;;;;;;;23.68;52.84;100795.56;4911383;29;20047;-77
2022/07/02 02:30:06;;;;;;;5.10;2.22;;;;;;;23.73;53.09;100795.16;4925763;29;20051;-78
2022/07/02 02:32:51;;;;;;;9.82;3.25;;;;;;;23.79;53.04;100802.66;4929446;29;20043;-77
2022/07/02 02:35:36;;;;;;;9.68;2.53;;;;;;;23.98;52.78;100800.59;4924698;29;20520;-77
2022/07/02 02:38:24;;;;;;;4.50;2.38;;;;;;;24.08;53.99;100803.31;4929629;29;20444;-75
2022/07/02 02:41:09;;;;;;;8.98;2.40;;;;;;;23.95;54.29;100802.19;4936022;29;20051;-76
2022/07/02 02:43:54;;;;;;;7.63;2.20;;;;;;;23.80;53.91;100806.25;4919295;29;20047;-77
2022/07/02 02:46:39;;;;;;;9.73;2.42;;;;;;;23.49;54.24;100799.59;4918498;29;20051;-79
2022/07/02 02:49:24;;;;;;;8.85;2.50;;;;;;;23.47;53.67;100803.97;4926325;29;20524;-76
2022/07/02 02:52:09;;;;;;;12.70;2.30;;;;;;;23.46;54.00;100810.72;4927879;29;20668;-76
2022/07/02 02:54:54;;;;;;;16.50;3.45;;;;;;;23.38;54.28;100810.69;4931018;29;20046;-77
2022/07/02 02:57:38;;;;;;;9.05;3.05;;;;;;;23.37;54.58;100802.75;4931211;29;20055;-75
2022/07/02 03:00:23;;;;;;;10.90;2.50;;;;;;;22.96;55.71;100813.50;4924222;29;20425;-75
2022/07/02 03:03:08;;;;;;;7.47;2.15;;;;;;;22.82;56.77;100808.75;4926269;29;20048;-74
2022/07/02 03:05:53;;;;;;;7.55;2.75;;;;;;;22.65;57.67;100809.53;4933086;29;20051;-76
2022/07/02 03:08:38;;;;;;;11.50;2.80;;;;;;;22.86;57.37;100809.56;4924193;29;20070;-76
2022/07/02 03:11:23;;;;;;;3.80;2.50;;;;;;;23.05;56.89;100821.44;4919581;29;20035;-75
2022/07/02 03:14:08;;;;;;;6.57;2.33;;;;;;;23.05;56.40;100822.25;4933445;29;20043;-76
2022/07/02 03:16:53;;;;;;;16.27;2.80;;;;;;;23.12;56.58;100833.31;4920694;29;20051;-74
2022/07/02 03:19:38;;;;;;;6.25;2.40;;;;;;;23.20;55.83;100828.56;4919607;29;20039;-75
2022/07/02 03:22:22;;;;;;;;;;;;;;;23.18;55.71;100831.72;4933970;29;20043;-75
2022/07/02 03:25:08;;;;;;;5.97;2.47;;;;;;;22.81;56.31;100826.59;4922007;29;19915;-75
2022/07/02 03:27:52;;;;;;;9.07;2.63;;;;;;;22.93;55.32;100825.41;4921221;29;20291;-76
2022/07/02 03:30:37;;;;;;;8.82;2.65;;;;;;;23.05;54.60;100838.09;4923054;29;20046;-76
2022/07/02 03:33:22;;;;;;;9.55;2.17;;;;;;;23.12;54.42;100838.06;4919167;29;20043;-74
2022/07/02 03:36:07;;;;;;;5.88;2.47;;;;;;;23.48;55.25;100841.63;4922948;29;20063;-74
2022/07/02 03:38:52;;;;;;;3.85;2.05;;;;;;;23.47;54.41;100843.59;4928809;29;20050;-75
2022/07/02 03:41:37;;;;;;;7.55;2.15;;;;;;;23.50;53.28;100842.81;4931288;29;20432;-75
2022/07/02 03:44:22;;;;;;;10.27;2.17;;;;;;;23.60;52.52;100847.56;4923814;29;20161;-75
2022/07/02 03:47:06;;;;;;;6.47;1.95;;;;;;;23.11;56.25;100848.38;4930511;29;20040;-74
2022/07/02 03:49:51;;;;;;;10.70;3.05;;;;;;;22.72;56.34;100848.38;4922901;29;20055;-76
2022/07/02 03:52:38;;;;;;;4.93;2.20;;;;;;;22.82;57.36;100853.13;4918442;29;20032;-75
2022/07/02 03:55:23;;;;;;;4.57;2.20;;;;;;;22.96;56.76;100855.91;4917803;29;20051;-76
2022/07/02 03:58:08;;;;;;;4.78;1.60;;;;;;;23.18;56.16;100864.25;4924969;29;20054;-75
2022/07/02 04:00:52;;;;;;;9.35;1.80;;;;;;;23.37;54.16;100869.38;4932883;29;20059;-76
2022/07/02 04:03:37;;;;;;;8.20;2.42;;;;;;;23.59;52.61;100870.97;4935245;29;20063;-75
2022/07/02 04:06:22;;;;;;;10.15;2.17;;;;;;;23.52;52.90;100876.50;4913668;29;20067;-77
2022/07/02 04:09:07;;;;;;;5.97;2.45;;;;;;;23.64;52.61;100880.88;4921915;29;20040;-75
2022/07/02 04:11:52;;;;;;;8.10;2.90;;;;;;;23.68;52.21;100878.88;4921177;29;20051;-77
2022/07/02 04:14:37;;;;;;;9.88;2.75;;;;;;;23.65;52.56;100882.44;4919450;29;20532;-76
2022/07/02 04:17:22;;;;;;;8.95;2.33;;;;;;;23.98;51.88;100883.94;4928428;29;20059;-75
2022/07/02 04:20:07;;;;;;;;;;;;;;;24.15;53.35;100877.53;4924738;29;20050;-75
2022/07/02 04:22:52;;;;;;;13.02;2.60;;;;;;;24.18;54.40;100885.06;4936652;28;20399;-75
2022/07/02 04:25:37;;;;;;;12.68;2.22;;;;;;;24.18;54.01;100880.31;4921212;29;20051;-75
2022/07/02 04:28:23;;;;;;;12.48;1.90;;;;;;;24.31;52.86;100882.66;4921256;29;20043;-76
2022/07/02 04:31:08;;;;;;;4.95;1.83;;;;;;;24.31;54.40;100880.66;4987699;23;20054;-60
2022/07/02 04:33:53;;;;;;;6.25;2.20;;;;;;;24.04;54.26;100885.13;4908436;29;20531;-60
2022/07/02 04:36:39;;;;;;;6.78;1.92;;;;;;;24.09;53.64;100890.25;4909341;29;20055;-59
2022/07/02 04:39:25;;;;;;;5.80;2.00;;;;;;;24.36;53.38;100890.56;4926486;29;20059;-60
2022/07/02 04:42:10;;;;;;;7.53;1.75;;;;;;;24.40;52.67;100897.69;4951483;28;20051;-61
2022/07/02 04:44:55;;;;;;;4.57;1.02;;;;;;;24.68;49.18;100905.91;4930544;29;20067;-60
2022/07/02 04:47:40;;;;;;;3.85;1.20;;;;;;;24.73;49.88;100898.31;4914687;29;20055;-60
2022/07/02 04:50:26;;;;;;;6.38;1.75;;;;;;;24.66;49.56;100894.38;4913668;29;20047;-59
2022/07/02 04:53:11;;;;;;;4.38;1.75;;;;;;;24.88;49.50;100903.41;4927866;29;20051;-60
2022/07/02 04:55:56;;;;;;;4.57;1.40;;;;;;;25.21;49.49;100904.75;4928374;29;20498;-60
2022/07/02 04:58:41;;;;;;;16.52;3.53;;;;;;;25.02;49.06;100908.06;4933265;29;20418;-60
2022/07/02 05:01:28;;;;;;;6.80;1.60;;;;;;;25.15;48.71;100911.94;4931135;29;20044;-61
2022/07/02 05:04:13;;;;;;;6.95;2.00;;;;;;;25.09;48.96;100913.59;4928064;29;20048;-61
2022/07/02 05:06:58;;;;;;;7.40;2.40;;;;;;;25.20;48.37;100913.50;4928352;29;20047;-60
2022/07/02 05:09:42;;;;;;;11.38;1.85;;;;;;;25.31;47.94;100922.53;4918645;29;20042;-60
2022/07/02 05:12:27;;;;;;;9.75;1.60;;;;;;;25.45;47.91;100925.22;4922936;29;20043;-61
2022/07/02 05:15:12;;;;;;;6.75;1.85;;;;;;;25.32;47.66;100919.38;4923431;29;20055;-60
2022/07/02 05:17:57;;;;;;;7.10;2.00;;;;;;;25.49;47.11;100924.00;4919623;29;20059;-62
2022/07/02 05:20:42;;;;;;;12.25;2.17;;;;;;;25.83;46.61;100923.28;4905710;29;20039;-61
2022/07/02 05:23:27;;;;;;;6.60;1.65;;;;;;;25.98;46.09;100928.28;4920591;29;20036;-60
2022/07/02 05:26:12;;;;;;;5.38;1.35;;;;;;;26.19;45.88;100927.25;4931547;28;20059;-61
2022/07/02 05:28:57;;;;;;;4.55;1.15;;;;;;;26.18;44.48;100934.03;4911047;29;20047;-61
2022/07/02 05:31:42;;;;;;;5.05;1.60;;;;;;;26.22;43.67;100940.38;4915243;29;20047;-60
2022/07/02 05:34:27;;;;;;;4.65;1.85;;;;;;;26.29;43.86;100939.50;4929214;29;20046;-62
2022/07/02 05:37:32;;;;;;;3.30;1.30;;;;;;;26.53;43.57;100943.19;4906863;29;20044;-61
2022/07/02 05:40:17;;;;;;;9.48;1.58;;;;;;;26.68;42.76;100937.00;4908322;29;20141;-60
2022/07/02 05:43:02;;;;;;;5.22;1.27;;;;;;;26.82;41.25;100942.38;4915783;29;20047;-60
2022/07/02 05:45:48;;;;;;;3.90;0.95;;;;;;;26.94;41.82;100957.78;4934287;29;20419;-61
2022/07/02 05:48:36;;;;;;;6.75;1.08;;;;;;;27.03;41.73;100949.69;4924881;29;20055;-60
2022/07/02 05:51:21;;;;;;;3.78;1.00;;;;;;;27.13;40.29;100957.09;4908421;29;20043;-63
2022/07/02 05:54:06;;;;;;;3.65;1.10;;;;;;;27.35;39.80;100953.97;4908444;29;20051;-63
2022/07/02 05:56:51;;;;;;;4.40;1.30;;;;;;;27.34;40.33;100958.78;4920041;29;20066;-63
2022/07/02 05:59:37;;;;;;;14.23;1.50;;;;;;;27.35;39.76;100965.16;4933530;29;20055;-61
2022/07/02 06:02:21;;;;;;;4.60;1.13;;;;;;;27.27;40.10;100960.91;4929232;29;20492;-63
2022/07/02 06:08:10;;;;;;;7.63;1.38;;;;;;;27.34;41.62;100958.78;4913513;29;20047;-63
2022/07/02 06:10:55;;;;;;;12.77;1.30;;;;;;;27.47;41.67;100961.75;4938752;28;20066;-63
2022/07/02 06:13:40;;;;;;;10.07;1.38;;;;;;;27.56;41.18;100964.81;4929882;29;20040;-62
2022/07/02 06:16:27;;;;;;;6.28;1.67;;;;;;;27.57;40.61;100966.41;4919130;29;20400;-63
2022/07/02 06:19:12;;;;;;;14.63;1.35;;;;;;;27.68;40.90;100969.81;4918749;29;20047;-62
2022/07/02 06:21:57;;;;;;;11.00;1.63;;;;;;;27.67;40.87;100970.22;4930385;29;20417;-63
2022/07/02 06:24:42;;;;;;;7.80;1.45;;;;;;;27.71;40.50;100974.53;4933458;29;20056;-63
2022/07/02 06:27:27;;;;;;;7.15;1.80;;;;;;;27.79;40.29;100980.78;4933410;29;20431;-63
2022/07/02 06:30:12;;;;;;;13.50;1.52;;;;;;;27.94;40.97;100974.50;4926882;29;20055;-63
2022/07/02 06:32:57;;;;;;;14.75;1.70;;;;;;;28.13;40.18;100975.00;4925170;29;20040;-63
2022/07/02 06:35:43;;;;;;;27.67;1.90;;;;;;;28.35;39.99;100976.16;4932698;29;20048;-63
2022/07/02 06:38:27;;;;;;;12.32;2.47;;;;;;;28.43;40.05;100978.38;4919555;29;20483;-63
2022/07/02 06:44:15;;;;;;;5.68;2.03;;;;;;;28.51;39.84;100987.41;4909614;29;20055;-64
2022/07/02 06:47:00;;;;;;;9.55;1.90;;;;;;;28.66;39.59;100988.69;4928128;29;20046;-63
2022/07/02 06:49:46;;;;;;;8.40;1.50;;;;;;;28.80;39.23;100988.41;4933130;29;20047;-63
2022/07/02 06:52:31;;;;;;;6.55;2.15;;;;;;;29.02;38.81;100996.31;4930144;29;20702;-64
2022/07/02 06:55:20;;;;;;;8.90;1.85;;;;;;;29.22;38.63;100999.84;4937247;29;20063;-63
2022/07/02 06:58:05;;;;;;;5.00;2.50;;;;;;;29.31;39.25;101002.88;4921683;29;20113;-63
2022/07/02 07:00:50;;;;;;;10.75;1.30;;;;;;;29.55;37.22;101001.50;4929523;29;20050;-63
2022/07/02 07:03:35;;;;;;;5.18;1.30;;;;;;;29.86;36.83;100998.31;4920238;29;20523;-63
2022/07/02 07:06:24;;;;;;;10.32;1.23;;;;;;;30.21;36.68;101007.81;4941257;29;20047;-63
2022/07/02 07:09:10;;;;;;;8.60;1.40;;;;;;;30.50;35.49;101003.78;4932817;29;20035;-62
2022/07/02 07:11:56;;;;;;;20.50;3.78;;;;;;;30.61;34.33;101008.31;4932459;29;20058;-61
2022/07/02 07:14:41;;;;;;;7.07;1.80;;;;;;;31.06;33.40;101011.75;4924351;29;20040;-62
2022/07/02 07:17:26;;;;;;;4.28;1.30;;;;;;;31.51;32.92;101013.53;4921926;29;20055;-62
2022/07/02 07:20:16;;;;;;;5.30;1.33;;;;;;;31.69;32.80;101008.94;4934101;29;20069;-63
2022/07/02 07:23:01;;;;;;;6.95;1.50;;;;;;;32.67;31.14;101019.94;4919044;29;20043;-63
2022/07/02 07:25:46;;;;;;;11.30;1.70;;;;;;;33.65;30.33;101019.25;4918296;29;20051;-64
2022/07/02 07:28:31;;;;;;;10.00;2.03;;;;;;;35.77;25.93;101028.47;4916930;29;20052;-64
2022/07/02 07:31:20;;;;;;;5.75;1.92;;;;;;;37.95;23.82;101031.75;4921152;29;20408;-64
2022/07/02 07:34:05;;;;;;;6.43;1.58;;;;;;;37.10;25.42;101031.06;4926688;29;20051;-63
2022/07/02 07:36:55;;;;;;;15.13;1.50;;;;;;;37.90;24.64;101031.69;4927020;29;20087;-63
2022/07/02 07:39:40;;;;;;;9.20;1.58;;;;;;;38.17;24.40;101036.94;4930698;29;20035;-63
2022/07/02 07:42:27;;;;;;;6.25;1.67;;;;;;;37.54;25.95;101041.53;4922208;29;20046;-63
2022/07/02 07:45:12;;;;;;;8.30;2.17;;;;;;;37.19;25.63;101042.28;4930926;29;20088;-62
2022/07/02 07:47:57;;;;;;;13.63;1.95;;;;;;;37.24;25.48;101043.63;4921761;29;20121;-63
2022/07/02 07:50:42;;;;;;;7.70;2.13;;;;;;;39.69;22.35;101052.00;4924051;29;20237;-63
2022/07/02 07:53:27;;;;;;;21.05;2.03;;;;;;;40.11;21.33;101062.56;4921154;29;20047;-63
2022/07/02 07:56:18;;;;;;;11.93;1.60;;;;;;;39.15;22.13;101059.66;4916947;29;20496;-63
2022/07/02 07:59:03;;;;;;;6.82;1.85;;;;;;;40.59;21.10;101068.94;4924268;29;20070;-63
2022/07/02 08:01:48;;;;;;;12.30;2.05;;;;;;;39.52;22.73;101057.59;4924635;29;20046;-63
2022/07/02 08:04:33;;;;;;;13.00;3.33;;;;;;;39.82;21.76;101068.69;4935518;29;20035;-63
2022/07/02 08:07:18;;;;;;;7.72;1.38;;;;;;;38.45;23.32;101060.78;4935258;29;20055;-64
2022/07/02 08:10:06;;;;;;;9.70;2.10;;;;;;;39.03;22.51;101066.53;4932866;29;20058;-63
2022/07/02 08:12:51;;;;;;;7.05;1.88;;;;;;;39.61;21.72;101063.09;4916700;29;20063;-65
2022/07/02 08:15:36;;;;;;;12.35;2.13;;;;;;;40.41;21.20;101077.97;4916697;29;20584;-67
2022/07/02 08:18:21;;;;;;;11.43;1.45;;;;;;;37.81;24.51;101065.91;4915956;29;20055;-64
2022/07/02 08:21:06;;;;;;;5.97;2.10;;;;;;;36.13;26.66;101064.22;4924614;29;20054;-64
2022/07/02 08:23:51;;;;;;;8.48;2.80;;;;;;;35.16;29.14;101073.06;4920587;29;20071;-64
2022/07/02 08:26:36;;;;;;;13.20;2.83;;;;;;;34.51;30.06;101068.78;4915837;29;20055;-64
2022/07/02 08:29:21;;;;;;;6.38;1.75;;;;;;;34.06;31.07;101061.06;4918335;29;20430;-64
2022/07/02 08:32:07;;;;;;;10.85;2.03;;;;;;;33.69;31.46;101057.38;4930452;29;20063;-64
2022/07/02 08:34:53;;;;;;;4.55;2.00;;;;;;;33.43;31.87;101065.28;4919624;29;20052;-64
2022/07/02 08:37:39;;;;;;;6.35;1.20;;;;;;;33.10;32.64;101058.53;4896092;29;20071;-63
2022/07/02 08:40:25;;;;;;;11.68;2.00;;;;;;;32.99;33.15;101058.94;4902708;29;20051;-64
2022/07/02 08:43:12;;;;;;;36.10;4.32;;;;;;;32.75;33.21;101062.72;4916329;29;20044;-64
2022/07/02 08:46:02;;;;;;;16.25;2.95;;;;;;;32.61;33.41;101066.81;4929856;29;20679;-63
2022/07/02 08:48:50;;;;;;;7.57;1.88;;;;;;;32.49;33.27;101065.63;4915556;29;20048;-63
2022/07/02 08:51:36;;;;;;;11.77;1.98;;;;;;;32.35;33.75;101052.09;4915427;29;20051;-64
2022/07/02 08:54:22;;;;;;;9.63;3.75;;;;;;;32.32;33.83;101055.78;4919507;29;20031;-63
2022/07/02 08:57:10;;;;;;;12.57;2.30;;;;;;;32.30;34.82;101049.84;4926641;29;20114;-63
2022/07/02 08:59:57;;;;;;;350.58;72.53;;;;;;;32.28;34.16;101048.72;4924439;29;20036;-63
2022/07/02 09:02:43;;;;;;;44.13;9.05;;;;;;;32.28;34.78;101057.97;4917245;29;20480;-62
2022/07/02 09:05:30;;;;;;;19.23;4.53;;;;;;;32.33;34.86;101046.09;4919796;29;20047;-63
2022/07/02 09:08:15;;;;;;;60.42;13.90;;;;;;;32.23;34.59;101050.09;4920580;29;20063;-63
2022/07/02 09:11:00;;;;;;;30.80;6.10;;;;;;;32.25;35.05;101053.25;4911592;29;20044;-63
2022/07/02 09:13:46;;;;;;;27.67;7.18;;;;;;;32.24;35.09;101048.84;4910191;29;20076;-63
2022/07/02 09:16:33;;;;;;;25.80;6.40;;;;;;;32.22;35.13;101054.16;4914627;29;20508;-63
2022/07/02 09:19:19;;;;;;;25.88;6.15;;;;;;;32.12;35.23;101049.69;4912074;29;20048;-63
2022/07/02 09:22:05;;;;;;;19.98;6.05;;;;;;;32.24;35.81;101052.47;4924328;29;20043;-63
2022/07/02 09:24:51;;;;;;;11.75;3.83;;;;;;;32.31;35.66;101053.41;4934092;29;20039;-63
2022/07/02 09:27:36;;;;;;;21.52;4.30;;;;;;;32.28;35.35;101052.31;4919158;29;20043;-63
2022/07/02 09:30:21;;;;;;;17.15;4.13;;;;;;;32.20;35.48;101054.59;4920653;29;20047;-63
2022/07/02 09:33:31;;;;;;;6.63;2.25;;;;;;;32.29;35.41;101050.31;4907986;29;20408;-63
2022/07/02 09:36:16;;;;;;;14.57;4.10;;;;;;;32.38;34.33;101061.63;4908289;29;20055;-63
2022/07/02 09:39:01;;;;;;;8.00;2.35;;;;;;;32.50;34.17;101063.63;4903035;29;20043;-63
2022/07/02 09:41:46;;;;;;;10.52;2.65;;;;;;;32.52;34.30;101063.91;4900686;29;20452;-63
2022/07/02 09:44:31;;;;;;;15.85;4.00;;;;;;;32.50;34.52;101063.63;4927174;29;20032;-63
2022/07/02 09:47:16;;;;;;;30.05;5.65;;;;;;;32.39;34.58;101064.00;4924452;29;20327;-63
2022/07/02 09:50:07;;;;;;;10.18;2.92;;;;;;;32.46;34.22;101060.16;4931852;29;20043;-63
2022/07/02 09:52:54;;;;;;;14.75;2.75;;;;;;;32.59;34.71;101066.50;4914695;29;20489;-63
2022/07/02 09:55:39;;;;;;;6.97;2.35;;;;;;;32.75;34.70;101065.53;4914733;29;20040;-63
2022/07/02 09:58:26;;;;;;;6.53;2.33;;;;;;;32.86;34.10;101068.75;4927743;29;20050;-63
2022/07/02 10:01:11;;;;;;;13.13;3.50;;;;;;;32.73;34.56;101063.16;4914672;29;20067;-63
2022/07/02 10:03:56;;;;;;;15.10;2.92;;;;;;;32.53;34.67;101062.69;4907910;29;20071;-63
2022/07/02 10:06:43;;;;;;;140.32;9.63;;;;;;;32.67;35.19;101059.38;4902117;29;20052;-63
2022/07/02 10:09:28;;;;;;;15.85;3.28;;;;;;;32.79;34.78;101064.16;4896442;29;20049;-63
2022/07/02 10:12:15;;;;;;;6.97;2.60;;;;;;;32.86;34.57;101066.72;4905244;29;20048;-63
2022/07/02 10:15:04;;;;;;;6.45;2.60;;;;;;;32.94;35.11;101068.00;4902838;29;20055;-63
2022/07/02 10:17:55;;;;;;;9.15;2.60;;;;;;;33.01;34.44;101067.72;4913184;29;20051;-63
2022/07/02 10:20:41;;;;;;;9.07;3.50;;;;;;;33.09;35.33;101066.19;4911599;29;20059;-63
2022/07/02 10:23:26;;;;;;;12.18;2.95;;;;;;;33.00;34.47;101071.00;4913057;29;20055;-63
2022/07/02 10:26:12;;;;;;;7.57;2.90;;;;;;;33.03;34.71;101059.59;4912701;29;20056;-63
2022/07/02 10:29:02;;;;;;;11.68;3.15;;;;;;;33.10;34.36;101062.13;4905223;29;20051;-63
2022/07/02 10:31:58;;;;;;;10.30;2.40;;;;;;;33.10;34.95;101056.50;4940953;23;20498;-77
2022/07/02 10:35:00;;;;;;;25.45;3.83;;;;;;;33.21;34.76;101053.28;4929527;29;20036;-77
2022/07/02 10:37:45;;;;;;;9.18;2.17;;;;;;;33.29;33.76;101059.41;4939576;29;20039;-76
2022/07/02 10:40:29;;;;;;;8.77;3.60;;;;;;;33.18;33.76;101047.78;4934401;29;20050;-76
2022/07/02 10:43:18;;;;;;;9.02;2.28;;;;;;;33.23;33.98;101050.00;4911048;29;20425;-77
2022/07/02 10:46:12;;;;;;;9.30;2.75;;;;;;;33.14;33.78;101047.91;4899945;29;20043;-77
2022/07/02 10:49:00;;;;;;;12.55;2.45;;;;;;;33.23;33.70;101052.81;4914494;29;20051;-77
2022/07/02 10:51:45;;;;;;;5.75;2.28;;;;;;;33.26;33.94;101054.72;4914609;29;20051;-77
2022/07/02 10:54:32;;;;;;;6.90;2.25;;;;;;;33.48;32.36;101055.41;4915800;29;20059;-76
2022/07/02 10:57:18;;;;;;;6.55;2.10;;;;;;;33.33;32.76;101048.78;4917359;29;20054;-77
2022/07/02 11:00:04;;;;;;;4.78;1.67;;;;;;;33.49;32.63;101040.06;4918200;29;20055;-77
2022/07/02 11:02:49;;;;;;;7.38;2.20;;;;;;;33.51;31.97;101048.84;4918557;29;20055;-77
2022/07/02 11:05:34;;;;;;;6.28;2.10;;;;;;;33.39;32.49;101032.81;4921160;29;20054;-77
2022/07/02 11:08:46;;;;;;;5.57;1.90;;;;;;;33.62;32.39;101037.94;4928725;29;20078;-77
2022/07/02 11:11:39;;;;;;;8.15;1.70;;;;;;;33.70;32.27;101039.22;4912534;29;20051;-77
2022/07/02 11:14:26;;;;;;;10.68;2.22;;;;;;;33.71;31.40;101034.38;4916337;29;20043;-77
2022/07/02 11:17:19;;;;;;;6.97;1.80;;;;;;;33.73;31.72;101034.69;4911874;29;20048;-76
2022/07/02 11:20:04;;;;;;;9.40;1.42;;;;;;;33.84;30.90;101032.97;4913096;29;20418;-77
2022/07/02 11:22:49;;;;;;;3.08;1.65;;;;;;;33.66;30.86;101035.72;4913474;29;20050;-77
2022/07/02 11:25:34;;;;;;;4.72;1.60;;;;;;;33.79;31.55;101027.94;4914314;29;20043;-76
2022/07/02 11:28:19;;;;;;;9.55;2.10;;;;;;;33.74;31.14;101025.72;4914537;29;20059;-77
2022/07/02 11:31:04;;;;;;;10.35;1.85;;;;;;;34.08;30.34;101029.56;4911967;29;20071;-77
2022/07/02 11:33:52;;;;;;;5.88;2.03;;;;;;;34.19;30.16;101027.06;4907393;29;20040;-77
2022/07/02 11:36:38;;;;;;;14.75;2.00;;;;;;;34.21;29.54;101021.72;4911800;29;20071;-75
2022/07/02 11:39:24;;;;;;;15.07;1.88;;;;;;;34.23;29.79;101017.19;4915510;29;20059;-77
2022/07/02 11:42:10;;;;;;;10.80;1.80;;;;;;;34.28;29.49;101015.78;4910473;29;20044;-78
2022/07/02 11:45:01;;;;;;;4.70;1.70;;;;;;;34.16;29.92;101016.69;4911462;29;20051;-77
2022/07/02 11:47:47;;;;;;;8.23;1.77;;;;;;;34.28;28.85;101012.94;4922157;29;20051;-78
2022/07/02 11:50:33;;;;;;;4.40;1.58;;;;;;;34.22;29.33;101009.19;4916145;29;20055;-77
2022/07/02 11:53:17;;;;;;;7.55;1.98;;;;;;;34.08;30.33;101002.09;4905003;29;20043;-77
2022/07/02 11:56:13;;;;;;;9.50;2.05;;;;;;;34.24;29.33;101009.47;4914030;29;20425;-77
2022/07/02 11:58:58;;;;;;;8.57;2.13;;;;;;;34.20;29.19;101000.38;4912900;29;20047;-76
2022/07/02 12:01:44;;;;;;;9.05;2.22;;;;;;;34.24;29.57;101001.00;4912628;29;20055;-75
2022/07/02 12:04:29;;;;;;;6.05;2.10;;;;;;;34.05;30.07;100999.41;4916622;29;20544;-75
2022/07/02 12:07:14;;;;;;;5.40;1.77;;;;;;;34.01;30.46;100995.97;4913969;29;20118;-77
2022/07/02 12:09:59;;;;;;;6.15;2.25;;;;;;;34.00;30.24;100997.22;4917057;29;20406;-75
2022/07/02 12:12:44;;;;;;;18.77;2.30;;;;;;;34.14;30.45;100996.59;4910317;29;20051;-80
2022/07/02 12:15:29;;;;;;;5.28;1.25;;;;;;;34.21;28.98;100991.44;4917765;29;20036;-77
2022/07/02 12:18:17;;;;;;;4.07;1.30;;;;;;;34.34;28.04;100989.22;4919611;29;20054;-78
2022/07/02 12:21:11;;;;;;;4.47;1.63;;;;;;;34.35;28.55;100992.84;4914247;29;20066;-77
2022/07/02 12:23:56;;;;;;;;;;;;;;;34.26;28.51;100984.38;4916467;29;20055;-76
2022/07/02 12:26:44;;;;;;;3.90;1.20;;;;;;;34.25;28.15;100988.47;4922346;29;19915;-78
2022/07/02 12:32:39;;;;;;;13.70;2.22;;;;;;;34.16;29.05;100977.94;4894523;29;20047;-78
2022/07/02 12:35:24;;;;;;;6.82;1.50;;;;;;;34.06;29.78;100976.38;4903833;29;20067;-78
2022/07/02 12:38:09;;;;;;;7.28;1.80;;;;;;;34.04;29.90;100969.63;4900135;29;20070;-78
2022/07/02 12:41:00;;;;;;;8.05;1.38;;;;;;;34.18;28.23;100971.81;4907619;29;20059;-79
2022/07/02 12:43:54;;;;;;;9.18;2.15;;;;;;;34.22;29.42;100973.25;4909142;29;20039;-78
2022/07/02 12:46:42;;;;;;;;;;;;;;;34.16;29.82;100977.94;4914939;29;20398;-77
2022/07/02 12:49:27;;;;;;;8.80;1.98;;;;;;;34.37;28.93;100973.38;4911568;29;19914;-77
2022/07/02 12:52:11;;;;;;;8.55;1.42;;;;;;;34.51;28.32;100983.25;4914838;29;20421;-78
2022/07/02 12:54:58;;;;;;;6.20;1.70;;;;;;;34.53;28.19;100975.88;4909809;29;20047;-78
2022/07/02 12:57:43;;;;;;;6.03;1.65;;;;;;;34.39;28.24;100970.84;4911759;29;20054;-77
2022/07/02 13:00:30;;;;;;;3.25;1.50;;;;;;;34.45;28.26;100974.63;4909446;29;20047;-77